White Deer, Texas
Current Conditions -  °F | °C
As of 11:15 AM on Friday 28 Nov 2014 (Local Time) from KPPA Reporting Station
Clear Clear  
Wind Chill: 66°   Ceiling: Unl
Heat Index: 66°   Visibility: 10mi
Dew Point: 25°   Wind: 12mph
Humidity: 21%   Direction: 260°W
Pressure: 30"   Gusts: NA
Location:  35.44°N, 101.17°W
Report Text: KPPA 281715Z AUTO 26010KT 10SM CLR 19/M04 A3000 RMK AO2 T01891038 PNO
Loading
Personal Weather Stations






























Interactive Weather Map New forecast layout! Learn more

10-Day Weather Forecast

Advertisements
Track Severe Weather on mobile